sensor_id;sensor_type;location;lat;lon;timestamp;temperature;humidity
4813;DHT22;2420;51.202;8.698;2023-01-15T00:01:03;7.70;1.00
4813;DHT22;2420;51.202;8.698;2023-01-15T00:03:29;7.70;1.00
4813;DHT22;2420;51.202;8.698;2023-01-15T00:05:55;7.60;1.00
4813;DHT22;2420;51.202;8.698;2023-01-15T00:08:21;7.60;1.00
4813;DHT22;2420;51.202;8.698;2023-01-15T00:10:47;7.60;1.00
4813;DHT22;2420;51.202;8.698;2023-01-15T00:13:12;7.50;1.00
4813;DHT22;2420;51.202;8.698;2023-01-15T00:15:38;7.60;1.00
4813;DHT22;2420;51.202;8.698;2023-01-15T00:18:03;7.60;1.00
4813;DHT22;2420;51.202;8.698;2023-01-15T00:20:29;7.50;1.00
4813;DHT22;2420;51.202;8.698;2023-01-15T00:22:55;7.40;1.00
4813;DHT22;2420;51.202;8.698;2023-01-15T00:25:20;7.40;1.00
4813;DHT22;2420;51.202;8.698;2023-01-15T00:28:05;7.40;1.00
4813;DHT22;2420;51.202;8.698;2023-01-15T00:30:31;7.30;1.00
4813;DHT22;2420;51.202;8.698;2023-01-15T00:32:57;7.30;1.00
4813;DHT22;2420;51.202;8.698;2023-01-15T00:35:24;7.30;1.00
4813;DHT22;2420;51.202;8.698;2023-01-15T00:37:50;7.20;1.00
4813;DHT22;2420;51.202;8.698;2023-01-15T00:40:17;7.20;1.00
4813;DHT22;2420;51.202;8.698;2023-01-15T00:42:43;7.20;1.00
4813;DHT22;2420;51.202;8.698;2023-01-15T00:45:10;7.20;1.00
4813;DHT22;2420;51.202;8.698;2023-01-15T00:47:40;7.10;1.00
4813;DHT22;2420;51.202;8.698;2023-01-15T00:50:09;7.00;1.00
4813;DHT22;2420;51.202;8.698;2023-01-15T00:52:35;6.80;1.00
4813;DHT22;2420;51.202;8.698;2023-01-15T00:55:01;6.80;1.00
4813;DHT22;2420;51.202;8.698;2023-01-15T00:57:27;6.10;1.00
4813;DHT22;2420;51.202;8.698;2023-01-15T00:59:52;6.40;1.00
4813;DHT22;2420;51.202;8.698;2023-01-15T01:02:18;6.30;1.00
4813;DHT22;2420;51.202;8.698;2023-01-15T01:04:44;6.20;1.00
4813;DHT22;2420;51.202;8.698;2023-01-15T01:07:09;6.00;1.00
4813;DHT22;2420;51.202;8.698;2023-01-15T01:09:35;6.00;1.00
4813;DHT22;2420;51.202;8.698;2023-01-15T01:12:00;6.10;1.00
4813;DHT22;2420;51.202;8.698;2023-01-15T01:14:26;6.00;1.00
4813;DHT22;2420;51.202;8.698;2023-01-15T01:16:52;5.80;1.00
4813;DHT22;2420;51.202;8.698;2023-01-15T01:19:20;5.70;1.00
4813;DHT22;2420;51.202;8.698;2023-01-15T01:21:46;5.60;1.00
4813;DHT22;2420;51.202;8.698;2023-01-15T01:24:15;5.90;1.00
4813;DHT22;2420;51.202;8.698;2023-01-15T01:26:42;5.80;1.00
4813;DHT22;2420;51.202;8.698;2023-01-15T01:29:15;5.90;1.00
4813;DHT22;2420;51.202;8.698;2023-01-15T01:31:41;5.70;1.00
4813;DHT22;2420;51.202;8.698;2023-01-15T01:34:08;5.80;1.00
4813;DHT22;2420;51.202;8.698;2023-01-15T01:36:36;5.60;1.00
4813;DHT22;2420;51.202;8.698;2023-01-15T01:39:03;5.80;1.00
4813;DHT22;2420;51.202;8.698;2023-01-15T01:41:29;5.70;1.00
4813;DHT22;2420;51.202;8.698;2023-01-15T01:44:00;5.80;1.00
4813;DHT22;2420;51.202;8.698;2023-01-15T01:46:29;5.50;1.00
4813;DHT22;2420;51.202;8.698;2023-01-15T01:48:59;5.50;1.00
4813;DHT22;2420;51.202;8.698;2023-01-15T01:51:29;5.40;1.00
4813;DHT22;2420;51.202;8.698;2023-01-15T01:53:57;5.40;1.00
4813;DHT22;2420;51.202;8.698;2023-01-15T01:56:23;5.50;1.00
4813;DHT22;2420;51.202;8.698;2023-01-15T01:58:51;5.50;1.00
4813;DHT22;2420;51.202;8.698;2023-01-15T02:01:20;5.50;1.00
4813;DHT22;2420;51.202;8.698;2023-01-15T02:03:46;5.50;1.00
4813;DHT22;2420;51.202;8.698;2023-01-15T02:06:13;5.40;1.00
4813;DHT22;2420;51.202;8.698;2023-01-15T02:08:39;5.20;1.00
4813;DHT22;2420;51.202;8.698;2023-01-15T02:11:09;5.40;1.00
4813;DHT22;2420;51.202;8.698;2023-01-15T02:16:27;5.30;1.00
4813;DHT22;2420;51.202;8.698;2023-01-15T02:21:23;5.30;1.00
4813;DHT22;2420;51.202;8.698;2023-01-15T02:24:12;5.30;1.00
4813;DHT22;2420;51.202;8.698;2023-01-15T02:29:44;5.10;1.00
4813;DHT22;2420;51.202;8.698;2023-01-15T02:32:27;5.10;1.00
4813;DHT22;2420;51.202;8.698;2023-01-15T02:34:56;4.90;1.00
4813;DHT22;2420;51.202;8.698;2023-01-15T02:37:28;4.80;1.00
4813;DHT22;2420;51.202;8.698;2023-01-15T02:39:57;4.70;1.00
4813;DHT22;2420;51.202;8.698;2023-01-15T02:42:24;4.90;1.00
4813;DHT22;2420;51.202;8.698;2023-01-15T02:44:52;4.60;1.00
4813;DHT22;2420;51.202;8.698;2023-01-15T02:47:31;4.50;1.00
4813;DHT22;2420;51.202;8.698;2023-01-15T02:50:02;4.30;1.00
4813;DHT22;2420;51.202;8.698;2023-01-15T02:52:34;4.20;1.00
4813;DHT22;2420;51.202;8.698;2023-01-15T02:55:15;4.10;1.00
4813;DHT22;2420;51.202;8.698;2023-01-15T02:57:42;4.00;1.00
4813;DHT22;2420;51.202;8.698;2023-01-15T03:00:12;4.10;1.00
4813;DHT22;2420;51.202;8.698;2023-01-15T03:02:43;4.30;1.00
4813;DHT22;2420;51.202;8.698;2023-01-15T03:05:22;4.10;1.00
4813;DHT22;2420;51.202;8.698;2023-01-15T03:07:51;4.40;1.00
4813;DHT22;2420;51.202;8.698;2023-01-15T03:10:21;4.20;1.00
4813;DHT22;2420;51.202;8.698;2023-01-15T03:12:59;4.40;1.00
4813;DHT22;2420;51.202;8.698;2023-01-15T03:18:43;4.60;1.00
4813;DHT22;2420;51.202;8.698;2023-01-15T03:21:12;4.50;1.00
4813;DHT22;2420;51.202;8.698;2023-01-15T03:23:44;4.40;1.00
4813;DHT22;2420;51.202;8.698;2023-01-15T03:26:10;4.40;1.00
4813;DHT22;2420;51.202;8.698;2023-01-15T03:28:37;4.40;1.00
4813;DHT22;2420;51.202;8.698;2023-01-15T03:31:04;4.40;1.00
4813;DHT22;2420;51.202;8.698;2023-01-15T03:33:29;4.30;1.00
4813;DHT22;2420;51.202;8.698;2023-01-15T03:35:56;4.50;1.00
4813;DHT22;2420;51.202;8.698;2023-01-15T03:38:34;4.50;1.00
4813;DHT22;2420;51.202;8.698;2023-01-15T03:41:11;4.30;1.00
4813;DHT22;2420;51.202;8.698;2023-01-15T03:43:51;4.40;1.00
4813;DHT22;2420;51.202;8.698;2023-01-15T03:46:29;4.30;1.00
4813;DHT22;2420;51.202;8.698;2023-01-15T03:49:11;4.20;1.00
4813;DHT22;2420;51.202;8.698;2023-01-15T03:54:26;4.20;1.00
4813;DHT22;2420;51.202;8.698;2023-01-15T03:57:07;4.30;1.00
4813;DHT22;2420;51.202;8.698;2023-01-15T03:59:39;4.30;1.00
4813;DHT22;2420;51.202;8.698;2023-01-15T04:02:11;4.40;1.00
4813;DHT22;2420;51.202;8.698;2023-01-15T04:04:39;4.20;1.00
4813;DHT22;2420;51.202;8.698;2023-01-15T04:07:07;4.10;1.00
4813;DHT22;2420;51.202;8.698;2023-01-15T04:09:38;3.90;1.00
4813;DHT22;2420;51.202;8.698;2023-01-15T04:12:04;4.00;1.00
4813;DHT22;2420;51.202;8.698;2023-01-15T04:14:30;3.90;1.00
4813;DHT22;2420;51.202;8.698;2023-01-15T04:16:55;4.20;1.00
4813;DHT22;2420;51.202;8.698;2023-01-15T04:19:21;4.00;1.00
4813;DHT22;2420;51.202;8.698;2023-01-15T04:21:46;4.00;1.00
4813;DHT22;2420;51.202;8.698;2023-01-15T04:24:12;3.90;1.00
4813;DHT22;2420;51.202;8.698;2023-01-15T04:26:38;4.00;1.00
4813;DHT22;2420;51.202;8.698;2023-01-15T04:29:03;4.10;1.00
4813;DHT22;2420;51.202;8.698;2023-01-15T04:31:29;3.90;1.00
4813;DHT22;2420;51.202;8.698;2023-01-15T04:33:56;3.90;1.00
4813;DHT22;2420;51.202;8.698;2023-01-15T04:36:22;3.90;1.00
4813;DHT22;2420;51.202;8.698;2023-01-15T04:38:47;4.00;1.00
4813;DHT22;2420;51.202;8.698;2023-01-15T04:41:13;3.80;1.00
4813;DHT22;2420;51.202;8.698;2023-01-15T04:43:57;3.70;1.00
4813;DHT22;2420;51.202;8.698;2023-01-15T04:46:34;3.60;1.00
4813;DHT22;2420;51.202;8.698;2023-01-15T04:48:59;3.60;1.00
4813;DHT22;2420;51.202;8.698;2023-01-15T04:51:25;3.80;1.00
4813;DHT22;2420;51.202;8.698;2023-01-15T04:53:51;3.70;1.00
4813;DHT22;2420;51.202;8.698;2023-01-15T04:56:16;3.90;1.00
4813;DHT22;2420;51.202;8.698;2023-01-15T04:58:42;3.70;1.00
4813;DHT22;2420;51.202;8.698;2023-01-15T05:01:15;3.80;1.00
4813;DHT22;2420;51.202;8.698;2023-01-15T05:03:42;3.70;1.00
4813;DHT22;2420;51.202;8.698;2023-01-15T05:06:08;3.80;1.00
4813;DHT22;2420;51.202;8.698;2023-01-15T05:08:34;3.90;1.00
4813;DHT22;2420;51.202;8.698;2023-01-15T05:11:05;3.80;1.00
4813;DHT22;2420;51.202;8.698;2023-01-15T05:13:32;3.80;1.00
4813;DHT22;2420;51.202;8.698;2023-01-15T05:18:33;3.80;1.00
4813;DHT22;2420;51.202;8.698;2023-01-15T05:20:58;3.90;1.00
4813;DHT22;2420;51.202;8.698;2023-01-15T05:23:24;3.80;1.00
4813;DHT22;2420;51.202;8.698;2023-01-15T05:25:49;3.80;1.00
4813;DHT22;2420;51.202;8.698;2023-01-15T05:28:15;3.80;1.00
4813;DHT22;2420;51.202;8.698;2023-01-15T05:30:40;4.00;1.00
4813;DHT22;2420;51.202;8.698;2023-01-15T05:33:06;4.00;1.00
4813;DHT22;2420;51.202;8.698;2023-01-15T05:35:31;3.90;1.00
4813;DHT22;2420;51.202;8.698;2023-01-15T05:37:57;3.90;1.00
4813;DHT22;2420;51.202;8.698;2023-01-15T05:40:22;3.80;1.00
4813;DHT22;2420;51.202;8.698;2023-01-15T05:42:48;3.90;1.00
4813;DHT22;2420;51.202;8.698;2023-01-15T05:45:13;3.70;1.00
4813;DHT22;2420;51.202;8.698;2023-01-15T05:47:39;3.90;1.00
4813;DHT22;2420;51.202;8.698;2023-01-15T05:50:05;3.90;1.00
4813;DHT22;2420;51.202;8.698;2023-01-15T05:52:30;4.00;1.00
4813;DHT22;2420;51.202;8.698;2023-01-15T05:54:56;4.10;1.00
4813;DHT22;2420;51.202;8.698;2023-01-15T05:57:21;3.80;1.00
4813;DHT22;2420;51.202;8.698;2023-01-15T05:59:47;3.70;1.00
4813;DHT22;2420;51.202;8.698;2023-01-15T06:02:14;4.00;1.00
4813;DHT22;2420;51.202;8.698;2023-01-15T06:04:40;3.80;1.00
4813;DHT22;2420;51.202;8.698;2023-01-15T06:07:05;3.90;1.00
4813;DHT22;2420;51.202;8.698;2023-01-15T06:09:31;3.80;1.00
4813;DHT22;2420;51.202;8.698;2023-01-15T06:11:57;3.90;1.00
4813;DHT22;2420;51.202;8.698;2023-01-15T06:14:23;4.00;1.00
4813;DHT22;2420;51.202;8.698;2023-01-15T06:16:48;3.80;1.00
4813;DHT22;2420;51.202;8.698;2023-01-15T06:19:14;3.90;1.00
4813;DHT22;2420;51.202;8.698;2023-01-15T06:21:40;3.90;1.00
4813;DHT22;2420;51.202;8.698;2023-01-15T06:24:06;3.90;1.00
4813;DHT22;2420;51.202;8.698;2023-01-15T06:26:32;4.00;1.00
4813;DHT22;2420;51.202;8.698;2023-01-15T06:28:58;4.00;1.00
4813;DHT22;2420;51.202;8.698;2023-01-15T06:31:24;3.90;1.00
4813;DHT22;2420;51.202;8.698;2023-01-15T06:33:52;3.90;1.00
4813;DHT22;2420;51.202;8.698;2023-01-15T06:36:21;3.70;1.00
4813;DHT22;2420;51.202;8.698;2023-01-15T06:38:47;3.70;1.00
4813;DHT22;2420;51.202;8.698;2023-01-15T06:41:21;3.90;1.00
4813;DHT22;2420;51.202;8.698;2023-01-15T06:44:08;3.70;1.00
4813;DHT22;2420;51.202;8.698;2023-01-15T06:46:53;3.70;1.00
4813;DHT22;2420;51.202;8.698;2023-01-15T06:49:37;3.90;1.00
4813;DHT22;2420;51.202;8.698;2023-01-15T06:52:04;3.80;1.00
4813;DHT22;2420;51.202;8.698;2023-01-15T06:54:30;4.00;1.00
4813;DHT22;2420;51.202;8.698;2023-01-15T06:56:56;3.90;1.00
4813;DHT22;2420;51.202;8.698;2023-01-15T06:59:21;3.90;1.00
4813;DHT22;2420;51.202;8.698;2023-01-15T07:01:47;3.90;1.00
4813;DHT22;2420;51.202;8.698;2023-01-15T07:04:13;3.90;1.00
4813;DHT22;2420;51.202;8.698;2023-01-15T07:06:38;3.70;1.00
4813;DHT22;2420;51.202;8.698;2023-01-15T07:09:04;3.90;1.00
4813;DHT22;2420;51.202;8.698;2023-01-15T07:11:30;3.90;1.00
4813;DHT22;2420;51.202;8.698;2023-01-15T07:13:55;3.80;1.00
4813;DHT22;2420;51.202;8.698;2023-01-15T07:16:36;4.00;1.00
4813;DHT22;2420;51.202;8.698;2023-01-15T07:19:02;3.80;1.00
4813;DHT22;2420;51.202;8.698;2023-01-15T07:21:28;3.70;1.00
4813;DHT22;2420;51.202;8.698;2023-01-15T07:23:58;3.80;1.00
4813;DHT22;2420;51.202;8.698;2023-01-15T07:26:23;3.90;1.00
4813;DHT22;2420;51.202;8.698;2023-01-15T07:28:49;3.80;1.00
4813;DHT22;2420;51.202;8.698;2023-01-15T07:31:14;3.60;1.00
4813;DHT22;2420;51.202;8.698;2023-01-15T07:33:40;3.90;1.00
4813;DHT22;2420;51.202;8.698;2023-01-15T07:36:06;3.90;1.00
4813;DHT22;2420;51.202;8.698;2023-01-15T07:38:31;3.70;1.00
4813;DHT22;2420;51.202;8.698;2023-01-15T07:40:58;3.70;1.00
4813;DHT22;2420;51.202;8.698;2023-01-15T07:43:42;4.00;1.00
4813;DHT22;2420;51.202;8.698;2023-01-15T07:46:27;3.70;1.00
4813;DHT22;2420;51.202;8.698;2023-01-15T07:49:11;3.90;1.00
4813;DHT22;2420;51.202;8.698;2023-01-15T07:51:56;3.90;1.00
4813;DHT22;2420;51.202;8.698;2023-01-15T07:54:21;3.80;1.00
4813;DHT22;2420;51.202;8.698;2023-01-15T07:56:48;3.80;1.00
4813;DHT22;2420;51.202;8.698;2023-01-15T07:59:14;3.60;1.00
4813;DHT22;2420;51.202;8.698;2023-01-15T08:01:39;3.70;1.00
4813;DHT22;2420;51.202;8.698;2023-01-15T08:04:05;3.90;1.00
4813;DHT22;2420;51.202;8.698;2023-01-15T08:06:30;3.70;1.00
4813;DHT22;2420;51.202;8.698;2023-01-15T08:08:56;3.90;1.00
4813;DHT22;2420;51.202;8.698;2023-01-15T08:11:21;3.70;1.00
4813;DHT22;2420;51.202;8.698;2023-01-15T08:14:05;3.80;1.00
4813;DHT22;2420;51.202;8.698;2023-01-15T08:16:49;3.70;1.00
4813;DHT22;2420;51.202;8.698;2023-01-15T08:19:15;3.80;1.00
4813;DHT22;2420;51.202;8.698;2023-01-15T08:21:40;3.80;1.00
4813;DHT22;2420;51.202;8.698;2023-01-15T08:24:06;3.70;1.00
4813;DHT22;2420;51.202;8.698;2023-01-15T08:26:32;3.70;1.00
4813;DHT22;2420;51.202;8.698;2023-01-15T08:28:57;3.80;1.00
4813;DHT22;2420;51.202;8.698;2023-01-15T08:31:23;3.90;1.00
4813;DHT22;2420;51.202;8.698;2023-01-15T08:33:49;3.90;1.00
4813;DHT22;2420;51.202;8.698;2023-01-15T08:36:14;3.80;1.00
4813;DHT22;2420;51.202;8.698;2023-01-15T08:38:42;3.90;1.00
4813;DHT22;2420;51.202;8.698;2023-01-15T08:41:07;3.90;1.00
4813;DHT22;2420;51.202;8.698;2023-01-15T08:43:33;3.70;1.00
4813;DHT22;2420;51.202;8.698;2023-01-15T08:46:00;3.90;1.00
4813;DHT22;2420;51.202;8.698;2023-01-15T08:48:28;3.80;1.00
4813;DHT22;2420;51.202;8.698;2023-01-15T08:50:54;3.90;1.00
4813;DHT22;2420;51.202;8.698;2023-01-15T08:53:20;3.90;1.00
4813;DHT22;2420;51.202;8.698;2023-01-15T08:55:47;3.90;1.00
4813;DHT22;2420;51.202;8.698;2023-01-15T08:58:13;4.00;1.00
4813;DHT22;2420;51.202;8.698;2023-01-15T09:00:39;3.80;1.00
4813;DHT22;2420;51.202;8.698;2023-01-15T09:03:05;3.90;1.00
4813;DHT22;2420;51.202;8.698;2023-01-15T09:05:31;3.90;1.00
4813;DHT22;2420;51.202;8.698;2023-01-15T09:07:56;3.70;1.00
4813;DHT22;2420;51.202;8.698;2023-01-15T09:10:22;3.90;1.00
4813;DHT22;2420;51.202;8.698;2023-01-15T09:12:48;3.80;1.00
4813;DHT22;2420;51.202;8.698;2023-01-15T09:15:16;3.70;1.00
4813;DHT22;2420;51.202;8.698;2023-01-15T09:17:41;4.00;1.00
4813;DHT22;2420;51.202;8.698;2023-01-15T09:20:10;3.70;1.00
4813;DHT22;2420;51.202;8.698;2023-01-15T09:22:36;3.80;1.00
4813;DHT22;2420;51.202;8.698;2023-01-15T09:25:01;3.90;1.00
4813;DHT22;2420;51.202;8.698;2023-01-15T09:27:27;4.10;1.00
4813;DHT22;2420;51.202;8.698;2023-01-15T09:29:54;4.10;1.00
4813;DHT22;2420;51.202;8.698;2023-01-15T09:32:19;3.90;1.00
4813;DHT22;2420;51.202;8.698;2023-01-15T09:34:45;4.10;1.00
4813;DHT22;2420;51.202;8.698;2023-01-15T09:37:11;3.90;1.00
4813;DHT22;2420;51.202;8.698;2023-01-15T09:39:37;4.20;1.00
4813;DHT22;2420;51.202;8.698;2023-01-15T09:45:20;4.10;1.00
4813;DHT22;2420;51.202;8.698;2023-01-15T09:50:45;3.80;1.00
4813;DHT22;2420;51.202;8.698;2023-01-15T09:56:24;3.90;1.00
4813;DHT22;2420;51.202;8.698;2023-01-15T09:58:53;3.90;1.00
4813;DHT22;2420;51.202;8.698;2023-01-15T10:01:25;3.70;1.00
4813;DHT22;2420;51.202;8.698;2023-01-15T10:04:04;3.90;1.00
4813;DHT22;2420;51.202;8.698;2023-01-15T10:06:37;3.90;1.00
4813;DHT22;2420;51.202;8.698;2023-01-15T10:09:14;3.80;1.00
4813;DHT22;2420;51.202;8.698;2023-01-15T10:11:45;3.70;1.00
4813;DHT22;2420;51.202;8.698;2023-01-15T10:17:48;3.60;1.00
4813;DHT22;2420;51.202;8.698;2023-01-15T10:20:23;3.80;1.00
4813;DHT22;2420;51.202;8.698;2023-01-15T10:25:51;3.70;1.00
4813;DHT22;2420;51.202;8.698;2023-01-15T10:28:24;3.60;1.00
4813;DHT22;2420;51.202;8.698;2023-01-15T10:30:54;3.60;1.00
4813;DHT22;2420;51.202;8.698;2023-01-15T10:33:27;3.90;1.00
4813;DHT22;2420;51.202;8.698;2023-01-15T10:36:07;3.60;1.00
4813;DHT22;2420;51.202;8.698;2023-01-15T10:44:45;3.70;1.00
4813;DHT22;2420;51.202;8.698;2023-01-15T10:47:12;3.70;1.00
4813;DHT22;2420;51.202;8.698;2023-01-15T10:49:40;3.50;1.00
4813;DHT22;2420;51.202;8.698;2023-01-15T10:52:20;3.70;1.00
4813;DHT22;2420;51.202;8.698;2023-01-15T10:54:58;4.00;1.00
4813;DHT22;2420;51.202;8.698;2023-01-15T10:58:10;3.90;1.00
4813;DHT22;2420;51.202;8.698;2023-01-15T11:00:32;4.10;1.00
4813;DHT22;2420;51.202;8.698;2023-01-15T11:03:14;4.10;1.00
4813;DHT22;2420;51.202;8.698;2023-01-15T11:05:42;4.10;1.00
4813;DHT22;2420;51.202;8.698;2023-01-15T11:08:19;4.30;1.00
4813;DHT22;2420;51.202;8.698;2023-01-15T11:10:47;4.20;1.00
4813;DHT22;2420;51.202;8.698;2023-01-15T11:13:21;4.30;1.00
4813;DHT22;2420;51.202;8.698;2023-01-15T11:16:16;4.30;1.00
4813;DHT22;2420;51.202;8.698;2023-01-15T11:19:26;4.10;1.00
4813;DHT22;2420;51.202;8.698;2023-01-15T11:22:22;4.20;1.00
4813;DHT22;2420;51.202;8.698;2023-01-15T11:24:56;4.20;1.00
4813;DHT22;2420;51.202;8.698;2023-01-15T11:27:29;4.20;1.00
4813;DHT22;2420;51.202;8.698;2023-01-15T11:29:57;4.50;1.00
4813;DHT22;2420;51.202;8.698;2023-01-15T11:32:33;4.30;1.00
4813;DHT22;2420;51.202;8.698;2023-01-15T11:35:02;4.60;1.00
4813;DHT22;2420;51.202;8.698;2023-01-15T11:37:29;4.20;1.00
4813;DHT22;2420;51.202;8.698;2023-01-15T11:39:59;4.30;1.00
4813;DHT22;2420;51.202;8.698;2023-01-15T11:42:37;4.30;1.00
4813;DHT22;2420;51.202;8.698;2023-01-15T11:45:23;4.60;1.00
4813;DHT22;2420;51.202;8.698;2023-01-15T11:48:16;4.30;1.00
4813;DHT22;2420;51.202;8.698;2023-01-15T11:51:06;4.60;1.00
4813;DHT22;2420;51.202;8.698;2023-01-15T11:53:37;4.60;1.00
4813;DHT22;2420;51.202;8.698;2023-01-15T11:56:09;4.60;1.00
4813;DHT22;2420;51.202;8.698;2023-01-15T11:58:45;4.50;1.00
4813;DHT22;2420;51.202;8.698;2023-01-15T12:01:27;4.50;1.00
4813;DHT22;2420;51.202;8.698;2023-01-15T12:03:55;4.20;1.00
4813;DHT22;2420;51.202;8.698;2023-01-15T12:06:22;4.30;1.00
4813;DHT22;2420;51.202;8.698;2023-01-15T12:18:02;4.60;1.00
4813;DHT22;2420;51.202;8.698;2023-01-15T12:26:26;4.70;1.00
4813;DHT22;2420;51.202;8.698;2023-01-15T12:29:05;4.60;1.00
4813;DHT22;2420;51.202;8.698;2023-01-15T12:31:42;4.50;1.00
4813;DHT22;2420;51.202;8.698;2023-01-15T12:36:49;4.60;1.00
4813;DHT22;2420;51.202;8.698;2023-01-15T12:39:19;4.70;1.00
4813;DHT22;2420;51.202;8.698;2023-01-15T12:41:53;4.30;1.00
4813;DHT22;2420;51.202;8.698;2023-01-15T12:50:43;4.40;1.00
4813;DHT22;2420;51.202;8.698;2023-01-15T12:53:35;4.60;1.00
4813;DHT22;2420;51.202;8.698;2023-01-15T12:59:17;4.50;1.00
4813;DHT22;2420;51.202;8.698;2023-01-15T13:02:03;4.70;1.00
4813;DHT22;2420;51.202;8.698;2023-01-15T13:07:24;4.70;1.00
4813;DHT22;2420;51.202;8.698;2023-01-15T13:10:01;4.70;1.00
4813;DHT22;2420;51.202;8.698;2023-01-15T13:12:32;4.50;1.00
4813;DHT22;2420;51.202;8.698;2023-01-15T13:14:59;4.40;1.00
4813;DHT22;2420;51.202;8.698;2023-01-15T13:28:38;4.50;1.00
4813;DHT22;2420;51.202;8.698;2023-01-15T13:33:55;4.40;1.00
4813;DHT22;2420;51.202;8.698;2023-01-15T13:36:43;4.60;1.00
4813;DHT22;2420;51.202;8.698;2023-01-15T13:39:19;4.60;1.00
4813;DHT22;2420;51.202;8.698;2023-01-15T13:41:48;4.50;1.00
4813;DHT22;2420;51.202;8.698;2023-01-15T13:44:38;4.50;1.00
4813;DHT22;2420;51.202;8.698;2023-01-15T13:47:13;4.40;1.00
4813;DHT22;2420;51.202;8.698;2023-01-15T13:49:51;4.70;1.00
4813;DHT22;2420;51.202;8.698;2023-01-15T13:52:27;4.50;1.00
4813;DHT22;2420;51.202;8.698;2023-01-15T13:54:59;4.50;1.00
4813;DHT22;2420;51.202;8.698;2023-01-15T13:57:33;4.50;1.00
4813;DHT22;2420;51.202;8.698;2023-01-15T13:59:59;4.40;1.00
4813;DHT22;2420;51.202;8.698;2023-01-15T14:02:27;4.50;1.00
4813;DHT22;2420;51.202;8.698;2023-01-15T14:04:54;4.50;1.00
4813;DHT22;2420;51.202;8.698;2023-01-15T14:07:34;4.70;1.00
4813;DHT22;2420;51.202;8.698;2023-01-15T14:10:33;4.50;1.00
4813;DHT22;2420;51.202;8.698;2023-01-15T14:13:18;4.30;1.00
4813;DHT22;2420;51.202;8.698;2023-01-15T14:16:26;4.60;1.00
4813;DHT22;2420;51.202;8.698;2023-01-15T14:34:57;4.60;1.00
4813;DHT22;2420;51.202;8.698;2023-01-15T14:37:29;4.50;1.00
4813;DHT22;2420;51.202;8.698;2023-01-15T14:39:58;4.40;1.00
4813;DHT22;2420;51.202;8.698;2023-01-15T14:42:30;4.50;1.00
4813;DHT22;2420;51.202;8.698;2023-01-15T14:45:23;4.50;1.00
4813;DHT22;2420;51.202;8.698;2023-01-15T14:47:58;4.20;1.00
4813;DHT22;2420;51.202;8.698;2023-01-15T14:50:38;4.30;1.00
4813;DHT22;2420;51.202;8.698;2023-01-15T14:58:58;4.50;1.00
4813;DHT22;2420;51.202;8.698;2023-01-15T15:01:35;4.60;1.00
4813;DHT22;2420;51.202;8.698;2023-01-15T15:09:11;4.50;1.00
4813;DHT22;2420;51.202;8.698;2023-01-15T15:11:44;4.40;1.00
4813;DHT22;2420;51.202;8.698;2023-01-15T15:14:30;4.40;1.00
4813;DHT22;2420;51.202;8.698;2023-01-15T15:16:59;4.60;1.00
4813;DHT22;2420;51.202;8.698;2023-01-15T15:19:30;4.60;1.00
4813;DHT22;2420;51.202;8.698;2023-01-15T15:22:02;4.50;1.00
4813;DHT22;2420;51.202;8.698;2023-01-15T15:24:34;4.60;1.00
4813;DHT22;2420;51.202;8.698;2023-01-15T15:27:20;4.60;1.00
4813;DHT22;2420;51.202;8.698;2023-01-15T15:29:46;4.50;1.00
4813;DHT22;2420;51.202;8.698;2023-01-15T15:32:18;4.50;1.00
4813;DHT22;2420;51.202;8.698;2023-01-15T15:34:46;4.50;1.00
4813;DHT22;2420;51.202;8.698;2023-01-15T15:37:24;4.50;1.00
4813;DHT22;2420;51.202;8.698;2023-01-15T15:45:55;4.60;1.00
4813;DHT22;2420;51.202;8.698;2023-01-15T15:48:40;4.30;1.00
4813;DHT22;2420;51.202;8.698;2023-01-15T15:51:29;4.40;1.00
4813;DHT22;2420;51.202;8.698;2023-01-15T15:56:58;4.50;1.00
4813;DHT22;2420;51.202;8.698;2023-01-15T15:59:32;4.40;1.00
4813;DHT22;2420;51.202;8.698;2023-01-15T16:02:13;4.40;1.00
4813;DHT22;2420;51.202;8.698;2023-01-15T16:04:50;4.60;1.00
4813;DHT22;2420;51.202;8.698;2023-01-15T16:07:27;4.50;1.00
4813;DHT22;2420;51.202;8.698;2023-01-15T16:10:17;4.30;1.00
4813;DHT22;2420;51.202;8.698;2023-01-15T16:12:49;4.40;1.00
4813;DHT22;2420;51.202;8.698;2023-01-15T16:15:19;4.50;1.00
4813;DHT22;2420;51.202;8.698;2023-01-15T16:17:46;4.30;1.00
4813;DHT22;2420;51.202;8.698;2023-01-15T16:20:15;4.30;1.00
4813;DHT22;2420;51.202;8.698;2023-01-15T16:23:01;4.50;1.00
4813;DHT22;2420;51.202;8.698;2023-01-15T16:25:39;4.50;1.00
4813;DHT22;2420;51.202;8.698;2023-01-15T16:28:06;4.40;1.00
4813;DHT22;2420;51.202;8.698;2023-01-15T16:30:56;4.20;1.00
4813;DHT22;2420;51.202;8.698;2023-01-15T16:33:23;4.30;1.00
4813;DHT22;2420;51.202;8.698;2023-01-15T16:35:55;4.50;1.00
4813;DHT22;2420;51.202;8.698;2023-01-15T16:38:22;4.30;1.00
4813;DHT22;2420;51.202;8.698;2023-01-15T16:40:48;4.10;1.00
4813;DHT22;2420;51.202;8.698;2023-01-15T16:43:16;4.20;1.00
4813;DHT22;2420;51.202;8.698;2023-01-15T16:48:35;4.20;1.00
4813;DHT22;2420;51.202;8.698;2023-01-15T16:51:22;4.10;1.00
4813;DHT22;2420;51.202;8.698;2023-01-15T16:53:48;4.20;1.00
4813;DHT22;2420;51.202;8.698;2023-01-15T17:02:14;4.10;1.00
4813;DHT22;2420;51.202;8.698;2023-01-15T17:04:43;4.10;1.00
4813;DHT22;2420;51.202;8.698;2023-01-15T17:07:19;4.30;1.00
4813;DHT22;2420;51.202;8.698;2023-01-15T17:09:48;4.20;1.00
4813;DHT22;2420;51.202;8.698;2023-01-15T17:14:51;4.20;1.00
4813;DHT22;2420;51.202;8.698;2023-01-15T17:17:25;4.20;1.00
4813;DHT22;2420;51.202;8.698;2023-01-15T17:19:54;4.40;1.00
4813;DHT22;2420;51.202;8.698;2023-01-15T17:22:30;4.10;1.00
4813;DHT22;2420;51.202;8.698;2023-01-15T17:24:58;4.30;1.00
4813;DHT22;2420;51.202;8.698;2023-01-15T17:27:25;4.30;1.00
4813;DHT22;2420;51.202;8.698;2023-01-15T17:29:51;4.30;1.00
4813;DHT22;2420;51.202;8.698;2023-01-15T17:32:27;4.40;1.00
4813;DHT22;2420;51.202;8.698;2023-01-15T17:34:54;4.40;1.00
4813;DHT22;2420;51.202;8.698;2023-01-15T17:37:19;4.20;1.00
4813;DHT22;2420;51.202;8.698;2023-01-15T17:39:45;4.00;1.00
4813;DHT22;2420;51.202;8.698;2023-01-15T17:42:16;4.20;1.00
4813;DHT22;2420;51.202;8.698;2023-01-15T17:44:42;4.00;1.00
4813;DHT22;2420;51.202;8.698;2023-01-15T17:47:08;4.00;1.00
4813;DHT22;2420;51.202;8.698;2023-01-15T17:49:34;4.00;1.00
4813;DHT22;2420;51.202;8.698;2023-01-15T17:52:00;4.10;1.00
4813;DHT22;2420;51.202;8.698;2023-01-15T17:54:26;4.10;1.00
4813;DHT22;2420;51.202;8.698;2023-01-15T17:57:10;4.20;1.00
4813;DHT22;2420;51.202;8.698;2023-01-15T17:59:54;4.20;1.00
4813;DHT22;2420;51.202;8.698;2023-01-15T18:02:38;4.10;1.00
4813;DHT22;2420;51.202;8.698;2023-01-15T18:05:23;4.10;1.00
4813;DHT22;2420;51.202;8.698;2023-01-15T18:07:55;4.00;1.00
4813;DHT22;2420;51.202;8.698;2023-01-15T18:10:22;4.10;1.00
4813;DHT22;2420;51.202;8.698;2023-01-15T18:12:48;4.00;1.00
4813;DHT22;2420;51.202;8.698;2023-01-15T18:15:14;4.10;1.00
4813;DHT22;2420;51.202;8.698;2023-01-15T18:17:41;4.30;1.00
4813;DHT22;2420;51.202;8.698;2023-01-15T18:20:07;4.30;1.00
4813;DHT22;2420;51.202;8.698;2023-01-15T18:22:33;4.20;1.00
4813;DHT22;2420;51.202;8.698;2023-01-15T18:24:58;4.20;1.00
4813;DHT22;2420;51.202;8.698;2023-01-15T18:27:24;4.00;1.00
4813;DHT22;2420;51.202;8.698;2023-01-15T18:29:54;4.10;1.00
4813;DHT22;2420;51.202;8.698;2023-01-15T18:32:20;4.40;1.00
4813;DHT22;2420;51.202;8.698;2023-01-15T18:34:45;4.30;1.00
4813;DHT22;2420;51.202;8.698;2023-01-15T18:37:11;4.00;1.00
4813;DHT22;2420;51.202;8.698;2023-01-15T18:39:37;4.30;1.00
4813;DHT22;2420;51.202;8.698;2023-01-15T18:42:03;4.10;1.00
4813;DHT22;2420;51.202;8.698;2023-01-15T18:44:29;4.00;1.00
4813;DHT22;2420;51.202;8.698;2023-01-15T18:47:14;4.10;1.00
4813;DHT22;2420;51.202;8.698;2023-01-15T18:49:43;4.00;1.00
4813;DHT22;2420;51.202;8.698;2023-01-15T18:52:10;4.10;1.00
4813;DHT22;2420;51.202;8.698;2023-01-15T18:54:55;4.10;1.00
4813;DHT22;2420;51.202;8.698;2023-01-15T18:57:21;4.30;1.00
4813;DHT22;2420;51.202;8.698;2023-01-15T18:59:47;4.10;1.00
4813;DHT22;2420;51.202;8.698;2023-01-15T19:02:13;4.00;1.00
4813;DHT22;2420;51.202;8.698;2023-01-15T19:04:40;4.10;1.00
4813;DHT22;2420;51.202;8.698;2023-01-15T19:07:06;4.10;1.00